createdAt,value
2018-04-29T00:00:45.758Z,54.61
2018-04-29T00:03:13.237Z,55.65
2018-04-29T00:05:40.691Z,55.26
2018-04-29T00:08:08.202Z,54.96
2018-04-29T00:10:35.694Z,55.53
2018-04-29T00:13:03.171Z,55.90
2018-04-29T00:15:30.718Z,56.40
2018-04-29T00:17:58.209Z,57.03
2018-04-29T00:20:25.708Z,57.12
2018-04-29T00:22:53.209Z,57.16
2018-04-29T00:25:20.704Z,56.88
2018-04-29T00:27:48.193Z,55.99
2018-04-29T00:30:15.677Z,55.95
2018-04-29T00:32:43.151Z,55.78
2018-04-29T00:35:10.604Z,55.96
2018-04-29T00:37:38.133Z,56.52
2018-04-29T00:40:05.673Z,56.45
2018-04-29T00:42:33.157Z,56.29
2018-04-29T00:45:00.670Z,56.22
2018-04-29T00:47:28.131Z,56.28
2018-04-29T00:49:55.639Z,56.90
2018-04-29T00:52:23.152Z,57.30
2018-04-29T00:54:50.649Z,57.95
2018-04-29T00:57:18.137Z,58.48
2018-04-29T00:59:45.653Z,59.02
2018-04-29T01:02:13.157Z,59.43
2018-04-29T01:04:40.649Z,59.80
2018-04-29T01:07:08.164Z,60.37
2018-04-29T01:09:35.666Z,60.80
2018-04-29T01:12:03.167Z,61.09
2018-04-29T01:14:30.678Z,61.55
2018-04-29T01:16:58.147Z,61.90
2018-04-29T01:19:25.662Z,62.12
2018-04-29T01:21:53.145Z,62.40
2018-04-29T01:24:20.649Z,62.51
2018-04-29T01:26:48.153Z,62.74
2018-04-29T01:29:15.641Z,63.03
2018-04-29T01:31:43.109Z,63.31
2018-04-29T01:34:10.616Z,63.64
2018-04-29T01:36:38.129Z,63.71
2018-04-29T01:39:05.798Z,63.92
2018-04-29T01:41:33.322Z,63.92
2018-04-29T01:44:00.792Z,64.02
2018-04-29T01:46:28.299Z,64.58
2018-04-29T01:48:55.764Z,64.82
2018-04-29T01:51:23.207Z,64.04
2018-04-29T01:53:50.680Z,65.47
2018-04-29T01:56:18.170Z,65.12
2018-04-29T01:58:45.629Z,65.02
2018-04-29T02:01:13.122Z,64.31
2018-04-29T02:03:40.625Z,64.45
2018-04-29T02:06:08.095Z,64.77
2018-04-29T02:08:35.560Z,65.10
2018-04-29T02:11:03.113Z,65.36
2018-04-29T02:13:30.596Z,65.75
2018-04-29T02:15:58.137Z,65.58
2018-04-29T02:18:25.641Z,65.32
2018-04-29T02:20:53.096Z,65.08
2018-04-29T02:23:20.588Z,64.67
2018-04-29T02:25:48.084Z,64.33
2018-04-29T02:28:15.570Z,64.59
2018-04-29T02:30:43.111Z,64.52
2018-04-29T02:33:10.631Z,64.39
2018-04-29T02:35:38.116Z,64.28
2018-04-29T02:38:05.598Z,64.27
2018-04-29T02:40:33.085Z,65.67
2018-04-29T02:43:00.610Z,65.11
2018-04-29T02:45:28.091Z,65.10
2018-04-29T02:47:55.546Z,64.25
2018-04-29T02:50:23.066Z,65.65
2018-04-29T02:52:50.583Z,65.84
2018-04-29T02:55:18.032Z,65.95
2018-04-29T02:57:45.517Z,63.30
2018-04-29T03:00:12.999Z,62.45
2018-04-29T03:02:40.497Z,62.03
2018-04-29T03:05:07.981Z,61.54
2018-04-29T03:07:35.457Z,61.96
2018-04-29T03:10:02.933Z,61.39
2018-04-29T03:12:30.493Z,60.80
2018-04-29T03:14:58.015Z,61.03
2018-04-29T03:17:25.486Z,61.56
2018-04-29T03:19:53.061Z,61.74
2018-04-29T03:22:20.560Z,62.15
2018-04-29T03:24:48.077Z,61.82
2018-04-29T03:27:15.577Z,61.86
2018-04-29T03:29:43.064Z,62.01
2018-04-29T03:32:10.518Z,62.10
2018-04-29T03:34:38.028Z,62.07
2018-04-29T03:37:05.554Z,62.36
2018-04-29T03:39:33.053Z,62.56
2018-04-29T03:42:00.585Z,62.89
2018-04-29T03:44:28.137Z,63.04
2018-04-29T03:46:55.664Z,63.22
2018-04-29T03:49:23.160Z,63.24
2018-04-29T03:51:50.653Z,63.46
2018-04-29T03:54:18.131Z,63.60
2018-04-29T03:56:45.614Z,63.64
2018-04-29T03:59:24.975Z,63.75
2018-04-29T04:02:04.557Z,63.84
2018-04-29T04:04:32.123Z,63.92
2018-04-29T04:06:59.576Z,64.01
2018-04-29T04:09:27.024Z,64.13
2018-04-29T04:11:54.498Z,64.72
2018-04-29T04:14:21.950Z,65.55
2018-04-29T04:16:49.432Z,65.73
2018-04-29T04:19:16.909Z,65.16
2018-04-29T04:21:44.378Z,64.32
2018-04-29T04:24:11.844Z,64.37
2018-04-29T04:26:39.353Z,64.41
2018-04-29T04:29:06.850Z,64.33
2018-04-29T04:31:34.343Z,64.11
2018-04-29T04:34:01.816Z,63.77
2018-04-29T04:36:29.297Z,64.21
2018-04-29T04:38:56.809Z,64.40
2018-04-29T04:41:24.333Z,64.05
2018-04-29T04:43:51.799Z,64.17
2018-04-29T04:46:19.272Z,63.98
2018-04-29T04:48:46.773Z,63.36
2018-04-29T04:51:14.269Z,62.95
2018-04-29T04:53:41.729Z,62.49
2018-04-29T04:56:09.287Z,63.33
2018-04-29T04:58:36.778Z,63.12
2018-04-29T05:01:04.418Z,62.93
2018-04-29T05:03:31.875Z,63.51
2018-04-29T05:05:59.391Z,63.74
2018-04-29T05:08:26.853Z,65.30
2018-04-29T05:10:54.308Z,65.67
2018-04-29T05:13:21.785Z,65.82
2018-04-29T05:15:49.323Z,65.34
2018-04-29T05:18:16.835Z,65.60
2018-04-29T05:20:44.300Z,65.47
2018-04-29T05:23:11.789Z,63.57
2018-04-29T05:25:39.246Z,62.31
2018-04-29T05:28:06.744Z,61.72
2018-04-29T05:30:34.222Z,60.64
2018-04-29T05:33:01.729Z,60.29
2018-04-29T05:35:29.252Z,59.94
2018-04-29T05:37:56.724Z,59.39
2018-04-29T05:40:24.208Z,59.32
2018-04-29T05:42:51.714Z,58.84
2018-04-29T05:45:19.221Z,58.81
2018-04-29T05:47:46.727Z,58.44
2018-04-29T05:50:14.232Z,58.17
2018-04-29T05:52:41.688Z,58.58
2018-04-29T05:55:09.192Z,58.98
2018-04-29T05:57:36.693Z,58.57
2018-04-29T06:00:04.216Z,58.60
2018-04-29T06:02:31.713Z,57.58
2018-04-29T06:04:59.196Z,57.67
2018-04-29T06:07:26.658Z,57.43
2018-04-29T06:09:54.157Z,57.68
2018-04-29T06:12:22.411Z,57.77
2018-04-29T06:14:49.956Z,56.72
2018-04-29T06:17:17.435Z,57.84
2018-04-29T06:19:44.925Z,57.55
2018-04-29T06:22:12.393Z,57.50
2018-04-29T06:24:39.865Z,57.62
2018-04-29T06:27:07.332Z,57.18
2018-04-29T06:29:34.951Z,56.51
2018-04-29T06:32:02.489Z,56.48
2018-04-29T06:34:29.868Z,55.80
2018-04-29T06:36:57.380Z,55.17
2018-04-29T06:39:24.877Z,55.73
2018-04-29T06:41:52.412Z,55.49
2018-04-29T06:44:19.936Z,54.16
2018-04-29T06:46:47.463Z,54.49
2018-04-29T06:49:14.920Z,54.44
2018-04-29T06:51:42.408Z,54.54
2018-04-29T06:54:09.898Z,53.90
2018-04-29T06:56:37.397Z,52.62
2018-04-29T06:59:04.938Z,52.99
2018-04-29T07:01:32.391Z,53.32
2018-04-29T07:03:59.867Z,54.09
2018-04-29T07:06:27.344Z,53.37
2018-04-29T07:08:54.820Z,53.17
2018-04-29T07:11:22.360Z,52.98
2018-04-29T07:13:49.833Z,52.37
2018-04-29T07:16:17.330Z,53.04
2018-04-29T07:18:44.808Z,53.73
2018-04-29T07:21:12.287Z,54.29
2018-04-29T07:23:39.768Z,54.45
2018-04-29T07:26:07.375Z,54.32
2018-04-29T07:28:34.783Z,54.05
2018-04-29T07:31:02.327Z,53.22
2018-04-29T07:33:29.781Z,52.75
2018-04-29T07:35:57.231Z,51.67
2018-04-29T07:38:24.724Z,50.68
2018-04-29T07:40:52.167Z,49.05
2018-04-29T07:43:19.649Z,48.35
2018-04-29T07:45:47.127Z,49.14
2018-04-29T07:48:14.660Z,48.91
2018-04-29T07:50:42.224Z,49.82
2018-04-29T07:53:09.767Z,49.04
2018-04-29T07:55:37.222Z,49.34
2018-04-29T07:58:04.744Z,50.15
2018-04-29T08:00:32.244Z,50.04
2018-04-29T08:02:59.701Z,49.43
2018-04-29T08:05:27.193Z,49.30
2018-04-29T08:07:54.705Z,47.02
2018-04-29T08:10:22.161Z,47.25
2018-04-29T08:12:49.639Z,46.85
2018-04-29T08:15:17.119Z,46.32
2018-04-29T08:17:44.600Z,46.36
2018-04-29T08:20:12.161Z,45.43
2018-04-29T08:22:39.757Z,44.68
2018-04-29T08:25:07.186Z,45.21
2018-04-29T08:27:34.639Z,44.79
2018-04-29T08:30:02.140Z,44.94
2018-04-29T08:32:29.591Z,45.93
2018-04-29T08:34:57.095Z,46.02
2018-04-29T08:37:24.552Z,47.17
2018-04-29T08:39:52.001Z,47.15
2018-04-29T08:42:19.466Z,46.74
2018-04-29T08:44:46.915Z,48.11
2018-04-29T08:47:14.424Z,48.63
2018-04-29T08:49:41.925Z,47.01
2018-04-29T08:52:09.378Z,46.93
2018-04-29T08:54:36.856Z,46.13
2018-04-29T08:57:04.333Z,45.66
2018-04-29T08:59:31.850Z,45.04
2018-04-29T09:01:59.372Z,45.85
2018-04-29T09:04:26.856Z,45.86
2018-04-29T09:06:54.337Z,46.24
2018-04-29T09:09:21.856Z,45.97
2018-04-29T09:11:49.308Z,45.75
2018-04-29T09:14:16.792Z,45.36
2018-04-29T09:16:44.272Z,45.17
2018-04-29T09:19:11.777Z,45.07
2018-04-29T09:21:39.273Z,44.54
2018-04-29T09:24:06.749Z,44.45
2018-04-29T09:26:34.242Z,45.24
2018-04-29T09:29:01.723Z,44.63
2018-04-29T09:31:29.165Z,44.55
2018-04-29T09:33:56.624Z,44.42
2018-04-29T09:36:24.125Z,45.02
2018-04-29T09:38:51.621Z,45.11
2018-04-29T09:41:19.104Z,43.93
2018-04-29T09:43:46.596Z,42.90
2018-04-29T09:46:14.044Z,42.58
2018-04-29T09:48:41.643Z,42.73
2018-04-29T09:51:09.122Z,42.37
2018-04-29T09:53:36.572Z,42.66
2018-04-29T09:56:04.037Z,42.38
2018-04-29T09:58:31.557Z,42.40
2018-04-29T10:00:59.103Z,42.44
2018-04-29T10:03:26.594Z,43.40
2018-04-29T10:05:54.064Z,42.09
2018-04-29T10:08:21.550Z,41.10
2018-04-29T10:10:49.052Z,41.04
2018-04-29T10:13:16.509Z,39.08
2018-04-29T10:15:43.956Z,38.68
2018-04-29T10:18:11.460Z,38.61
2018-04-29T10:20:38.917Z,38.02
2018-04-29T10:23:06.416Z,38.58
2018-04-29T10:25:33.901Z,38.99
2018-04-29T10:28:01.387Z,38.81
2018-04-29T10:30:28.848Z,38.65
2018-04-29T10:32:56.336Z,39.23
2018-04-29T10:35:23.839Z,38.55
2018-04-29T10:37:51.285Z,38.92
2018-04-29T10:40:18.740Z,39.54
2018-04-29T10:42:46.246Z,39.78
2018-04-29T10:45:13.736Z,40.00
2018-04-29T10:47:41.229Z,40.07
2018-04-29T10:50:08.778Z,40.27
2018-04-29T10:52:36.280Z,40.20
2018-04-29T10:55:03.699Z,39.79
2018-04-29T10:57:31.199Z,38.67
2018-04-29T10:59:58.675Z,38.68
2018-04-29T11:02:26.123Z,38.46
2018-04-29T11:04:53.621Z,38.33
2018-04-29T11:07:21.134Z,38.67
2018-04-29T11:09:48.598Z,38.64
2018-04-29T11:12:16.084Z,38.41
2018-04-29T11:14:43.555Z,38.46
2018-04-29T11:17:11.025Z,38.50
2018-04-29T11:19:38.573Z,39.05
2018-04-29T11:22:06.084Z,38.72
2018-04-29T11:24:33.608Z,37.77
2018-04-29T11:27:01.089Z,38.04
2018-04-29T11:29:28.589Z,38.65
2018-04-29T11:31:56.162Z,38.24
2018-04-29T11:34:23.678Z,38.07
2018-04-29T11:36:51.265Z,38.70
2018-04-29T11:39:18.843Z,38.75
2018-04-29T11:41:46.400Z,37.98
2018-04-29T11:44:13.904Z,38.23
2018-04-29T11:46:41.366Z,38.10
2018-04-29T11:49:08.827Z,37.65
2018-04-29T11:51:36.293Z,37.89
2018-04-29T11:54:03.811Z,38.16
2018-04-29T11:56:31.293Z,38.49
2018-04-29T11:58:58.777Z,38.27
2018-04-29T12:01:26.239Z,38.47
2018-04-29T12:03:53.722Z,37.63
2018-04-29T12:06:21.229Z,37.42
2018-04-29T12:08:48.681Z,37.41
2018-04-29T12:11:16.185Z,37.52
2018-04-29T12:13:43.706Z,36.89
2018-04-29T12:16:11.171Z,36.58
2018-04-29T12:18:38.670Z,36.96
2018-04-29T12:21:06.127Z,36.62
2018-04-29T12:23:33.627Z,36.08
2018-04-29T12:26:01.207Z,35.92
2018-04-29T12:28:28.785Z,36.22
2018-04-29T12:30:56.306Z,36.41
2018-04-29T12:33:23.799Z,35.82
2018-04-29T12:35:51.252Z,36.04
2018-04-29T12:38:18.799Z,35.82
2018-04-29T12:40:46.199Z,36.42
2018-04-29T12:43:13.950Z,36.78
2018-04-29T12:45:41.533Z,36.48
2018-04-29T12:48:09.162Z,36.74
2018-04-29T12:50:36.612Z,36.72
2018-04-29T12:53:04.113Z,36.39
2018-04-29T12:55:31.653Z,36.38
2018-04-29T12:57:59.280Z,36.11
2018-04-29T13:00:26.762Z,36.12
2018-04-29T13:02:54.261Z,36.23
2018-04-29T13:05:21.792Z,35.55
2018-04-29T13:07:49.467Z,35.38
2018-04-29T13:10:16.957Z,35.05
2018-04-29T13:12:44.407Z,35.18
2018-04-29T13:15:11.876Z,35.49
2018-04-29T13:17:39.327Z,36.49
2018-04-29T13:20:06.804Z,36.81
2018-04-29T13:22:34.285Z,36.71
2018-04-29T13:25:01.743Z,36.20
2018-04-29T13:27:29.231Z,35.70
2018-04-29T13:29:56.734Z,35.87
2018-04-29T13:32:24.214Z,35.97
2018-04-29T13:34:51.663Z,36.35
2018-04-29T13:37:19.140Z,35.98
2018-04-29T13:39:46.598Z,36.16
2018-04-29T13:42:14.092Z,36.05
2018-04-29T13:44:41.580Z,36.52
2018-04-29T13:47:09.065Z,36.24
2018-04-29T13:49:36.549Z,36.21
2018-04-29T13:52:04.051Z,37.03
2018-04-29T13:54:31.626Z,37.59
2018-04-29T13:56:59.108Z,37.89
2018-04-29T13:59:26.560Z,38.00
2018-04-29T14:01:54.162Z,37.56
2018-04-29T14:04:21.615Z,38.02
2018-04-29T14:06:49.104Z,37.98
2018-04-29T14:09:16.578Z,37.48
2018-04-29T14:11:44.051Z,36.94
2018-04-29T14:14:11.616Z,37.63
2018-04-29T14:16:39.105Z,37.56
2018-04-29T14:19:06.567Z,37.61
2018-04-29T14:21:34.073Z,37.44
2018-04-29T14:24:01.524Z,37.32
2018-04-29T14:26:29.103Z,37.94
2018-04-29T14:28:56.617Z,37.56
2018-04-29T14:31:24.135Z,37.41
2018-04-29T14:33:51.600Z,37.06
2018-04-29T14:36:19.071Z,37.23
2018-04-29T14:38:46.751Z,36.93
2018-04-29T14:41:14.230Z,36.52
2018-04-29T14:43:41.727Z,36.93
2018-04-29T14:46:09.192Z,37.71
2018-04-29T14:48:36.911Z,37.74
2018-04-29T14:51:04.399Z,37.95
2018-04-29T14:53:31.886Z,37.40
2018-04-29T14:55:59.353Z,36.85
2018-04-29T14:58:26.806Z,36.48
2018-04-29T15:00:54.327Z,37.10
2018-04-29T15:03:21.836Z,37.83
2018-04-29T15:05:49.324Z,37.99
2018-04-29T15:08:16.782Z,37.93
2018-04-29T15:10:44.259Z,38.03
2018-04-29T15:13:11.721Z,37.76
2018-04-29T15:15:39.171Z,38.12
2018-04-29T15:18:06.780Z,36.68
2018-04-29T15:20:34.265Z,34.77
2018-04-29T15:23:01.760Z,33.35
2018-04-29T15:25:29.268Z,31.66
2018-04-29T15:27:56.766Z,31.93
2018-04-29T15:30:24.257Z,31.31
2018-04-29T15:32:51.779Z,30.84
2018-04-29T15:35:19.617Z,30.23
2018-04-29T15:37:47.115Z,31.00
2018-04-29T15:40:14.669Z,30.61
2018-04-29T15:42:42.204Z,30.82
2018-04-29T15:45:09.670Z,30.79
2018-04-29T15:47:37.119Z,31.25
2018-04-29T15:50:04.634Z,31.70
2018-04-29T15:52:32.116Z,31.54
2018-04-29T15:54:59.571Z,31.72
2018-04-29T15:57:27.084Z,31.96
2018-04-29T15:59:54.566Z,31.51
2018-04-29T16:02:22.867Z,30.90
2018-04-29T16:04:50.372Z,31.76
2018-04-29T16:07:17.880Z,32.08
2018-04-29T16:09:45.376Z,32.89
2018-04-29T16:12:12.856Z,33.82
2018-04-29T16:14:40.327Z,34.83
2018-04-29T16:19:41.660Z,36.42
2018-04-29T16:22:09.174Z,38.07
2018-04-29T16:24:36.757Z,39.05
2018-04-29T16:27:04.286Z,39.64
2018-04-29T16:29:31.740Z,40.30
2018-04-29T16:31:59.192Z,40.78
2018-04-29T16:34:26.706Z,40.90
2018-04-29T16:36:54.161Z,40.73
2018-04-29T16:39:21.652Z,40.83
2018-04-29T16:41:49.150Z,40.94
2018-04-29T16:44:16.611Z,41.30
2018-04-29T16:46:44.101Z,41.48
2018-04-29T16:49:11.549Z,41.74
2018-04-29T16:51:39.029Z,42.00
2018-04-29T16:54:06.547Z,42.37
2018-04-29T16:56:34.012Z,42.32
2018-04-29T16:59:01.453Z,42.44
2018-04-29T17:01:28.915Z,42.54
2018-04-29T17:03:56.411Z,42.76
2018-04-29T17:06:23.876Z,42.56
2018-04-29T17:08:51.367Z,42.97
2018-04-29T17:11:18.857Z,42.93
2018-04-29T17:13:46.407Z,42.95
2018-04-29T17:16:13.911Z,41.89
2018-04-29T17:18:41.421Z,41.64
2018-04-29T17:21:08.905Z,41.31
2018-04-29T17:23:36.437Z,41.29
2018-04-29T17:26:03.904Z,41.43
2018-04-29T17:28:31.385Z,41.40
2018-04-29T17:30:58.845Z,41.42
2018-04-29T17:33:26.321Z,41.74
2018-04-29T17:35:53.759Z,41.81
2018-04-29T17:38:21.237Z,42.04
2018-04-29T17:40:48.702Z,42.18
2018-04-29T17:43:16.175Z,42.38
2018-04-29T17:45:43.661Z,42.78
2018-04-29T17:48:11.175Z,43.02
2018-04-29T17:50:38.648Z,43.19
2018-04-29T17:53:06.164Z,43.81
2018-04-29T17:55:33.672Z,44.31
2018-04-29T17:58:01.162Z,44.84
2018-04-29T18:00:28.673Z,45.21
2018-04-29T18:02:56.167Z,45.55
2018-04-29T18:05:23.640Z,45.78
2018-04-29T18:07:51.123Z,46.10
2018-04-29T18:10:18.616Z,46.40
2018-04-29T18:12:46.192Z,46.64
2018-04-29T18:15:13.672Z,46.76
2018-04-29T18:17:41.153Z,46.85
2018-04-29T18:20:08.633Z,47.16
2018-04-29T18:22:36.084Z,47.40
2018-04-29T18:25:03.545Z,47.68
2018-04-29T18:27:30.993Z,47.90
2018-04-29T18:29:58.483Z,48.22
2018-04-29T18:32:25.973Z,48.26
2018-04-29T18:34:53.481Z,48.40
2018-04-29T18:37:20.978Z,48.50
2018-04-29T18:39:48.475Z,48.62
2018-04-29T18:42:15.969Z,48.87
2018-04-29T18:44:43.488Z,49.15
2018-04-29T18:47:11.005Z,49.32
2018-04-29T18:49:38.547Z,49.58
2018-04-29T18:52:06.271Z,49.84
2018-04-29T18:54:33.932Z,50.10
2018-04-29T18:57:02.660Z,50.29
2018-04-29T18:59:30.318Z,50.39
2018-04-29T19:01:57.989Z,50.32
2018-04-29T19:04:25.610Z,50.35
2018-04-29T19:06:53.177Z,50.42
2018-04-29T19:09:20.746Z,50.60
2018-04-29T19:11:48.195Z,50.40
2018-04-29T19:14:15.753Z,50.58
2018-04-29T19:16:43.240Z,50.62
2018-04-29T19:19:10.735Z,50.84
2018-04-29T19:21:38.291Z,50.90
2018-04-29T19:24:05.821Z,51.05
2018-04-29T19:26:33.226Z,51.12
2018-04-29T19:29:00.678Z,51.21
2018-04-29T19:31:28.247Z,51.52
2018-04-29T19:33:55.697Z,51.47
2018-04-29T19:36:23.230Z,51.59
2018-04-29T19:38:50.671Z,51.72
2018-04-29T19:41:18.158Z,51.77
2018-04-29T19:43:45.675Z,51.82
2018-04-29T19:46:13.232Z,51.97
2018-04-29T19:48:40.708Z,51.96
2018-04-29T19:51:08.229Z,51.99
2018-04-29T19:53:35.688Z,52.05
2018-04-29T19:56:03.149Z,52.23
2018-04-29T19:58:30.680Z,52.28
2018-04-29T20:00:58.150Z,52.42
2018-04-29T20:03:25.655Z,52.40
2018-04-29T20:05:53.100Z,52.40
2018-04-29T20:08:20.543Z,52.43
2018-04-29T20:10:47.988Z,52.31
2018-04-29T20:13:15.444Z,52.53
2018-04-29T20:15:42.892Z,52.57
2018-04-29T20:18:10.434Z,52.94
2018-04-29T20:20:37.901Z,53.25
2018-04-29T20:23:05.381Z,53.56
2018-04-29T20:25:32.914Z,53.74
2018-04-29T20:28:01.184Z,53.91
2018-04-29T20:30:28.656Z,54.13
2018-04-29T20:32:56.123Z,54.15
2018-04-29T20:35:23.733Z,54.41
2018-04-29T20:37:51.243Z,54.60
2018-04-29T20:40:18.692Z,54.69
2018-04-29T20:42:46.161Z,54.88
2018-04-29T20:45:13.616Z,55.06
2018-04-29T20:47:41.098Z,55.19
2018-04-29T20:50:08.544Z,55.35
2018-04-29T20:52:35.995Z,55.54
2018-04-29T20:55:03.452Z,55.50
2018-04-29T20:57:30.955Z,55.62
2018-04-29T20:59:58.437Z,55.78
2018-04-29T21:02:25.869Z,55.94
2018-04-29T21:04:53.331Z,56.04
2018-04-29T21:07:20.911Z,56.09
2018-04-29T21:09:48.412Z,56.30
2018-04-29T21:12:15.875Z,56.55
2018-04-29T21:14:43.390Z,56.68
2018-04-29T21:17:10.845Z,56.89
2018-04-29T21:19:38.324Z,57.08
2018-04-29T21:22:05.794Z,57.27
2018-04-29T21:24:33.268Z,57.46
2018-04-29T21:27:00.766Z,57.59
2018-04-29T21:29:28.272Z,57.84
2018-04-29T21:31:55.720Z,58.09
2018-04-29T21:34:23.213Z,58.32
2018-04-29T21:36:50.691Z,58.58
2018-04-29T21:39:18.179Z,58.63
2018-04-29T21:41:45.688Z,58.85
2018-04-29T21:44:13.180Z,58.99
2018-04-29T21:46:40.628Z,59.30
2018-04-29T21:49:08.258Z,59.38
2018-04-29T21:51:35.748Z,59.55
2018-04-29T21:54:03.183Z,59.82
2018-04-29T21:56:30.683Z,60.01
2018-04-29T21:58:58.183Z,60.12
2018-04-29T22:01:25.657Z,60.24
2018-04-29T22:03:53.184Z,60.37
2018-04-29T22:06:20.634Z,60.56
2018-04-29T22:08:48.080Z,60.69
2018-04-29T22:11:15.689Z,60.68
2018-04-29T22:13:43.169Z,60.77
2018-04-29T22:16:10.709Z,60.92
2018-04-29T22:18:38.175Z,61.09
2018-04-29T22:21:05.649Z,61.26
2018-04-29T22:23:33.136Z,61.42
2018-04-29T22:26:00.615Z,61.46
2018-04-29T22:28:28.096Z,61.61
2018-04-29T22:30:55.572Z,61.61
2018-04-29T22:33:23.024Z,61.77
2018-04-29T22:35:50.489Z,61.91
2018-04-29T22:38:17.960Z,61.97
2018-04-29T22:40:45.408Z,62.16
2018-04-29T22:43:12.883Z,62.22
2018-04-29T22:45:40.378Z,62.19
2018-04-29T22:48:07.870Z,62.43
2018-04-29T22:50:35.358Z,62.56
2018-04-29T22:53:02.870Z,62.79
2018-04-29T22:55:30.327Z,62.93
2018-04-29T22:57:57.852Z,62.92
2018-04-29T23:00:25.364Z,63.09
2018-04-29T23:02:52.808Z,63.19
2018-04-29T23:05:20.289Z,63.26
2018-04-29T23:07:47.781Z,63.38
2018-04-29T23:10:15.239Z,63.36
2018-04-29T23:12:42.729Z,63.45
2018-04-29T23:15:10.301Z,63.63
2018-04-29T23:17:37.822Z,63.61
2018-04-29T23:20:05.268Z,63.84
2018-04-29T23:22:32.704Z,63.95
2018-04-29T23:25:00.244Z,64.03
2018-04-29T23:27:27.717Z,64.19
2018-04-29T23:29:55.189Z,64.33
2018-04-29T23:32:22.677Z,64.41
2018-04-29T23:34:50.177Z,64.58
2018-04-29T23:37:17.706Z,64.76
2018-04-29T23:39:45.154Z,64.90
2018-04-29T23:42:12.603Z,64.93
2018-04-29T23:44:40.185Z,64.95
2018-04-29T23:47:07.702Z,65.03
2018-04-29T23:49:35.314Z,65.05
2018-04-29T23:52:02.771Z,65.07
2018-04-29T23:54:30.423Z,65.08
2018-04-29T23:56:57.882Z,65.10
2018-04-29T23:59:25.383Z,65.09
